createdAt,value
2022-09-23T00:01:19.531Z,5.19
2022-09-23T00:03:47.235Z,5.14
2022-09-23T00:06:22.817Z,5.19
2022-09-23T00:08:50.415Z,5.20
2022-09-23T00:11:25.490Z,5.15
2022-09-23T00:13:55.439Z,5.06
2022-09-23T00:16:26.756Z,5.11
2022-09-23T00:18:53.415Z,5.03
2022-09-23T00:21:22.005Z,5.00
2022-09-23T00:23:48.835Z,5.09
2022-09-23T00:26:19.104Z,5.04
2022-09-23T00:28:46.641Z,5.00
2022-09-23T00:31:21.548Z,4.93
2022-09-23T00:33:53.158Z,4.91
2022-09-23T00:36:19.887Z,4.86
2022-09-23T00:38:46.889Z,4.84
2022-09-23T00:41:17.179Z,4.88
2022-09-23T00:43:48.552Z,4.88
2022-09-23T00:46:20.648Z,4.83
2022-09-23T00:48:48.986Z,4.74
2022-09-23T00:51:20.106Z,4.73
2022-09-23T00:53:50.299Z,4.77
2022-09-23T00:56:18.486Z,4.76
2022-09-23T00:58:47.595Z,4.71
2022-09-23T01:01:14.535Z,4.73
2022-09-23T01:03:45.516Z,4.63
2022-09-23T01:06:13.597Z,4.60
2022-09-23T01:08:44.106Z,4.58
2022-09-23T01:12:18.662Z,4.55
2022-09-23T01:14:52.885Z,4.59
2022-09-23T01:17:32.827Z,4.52
2022-09-23T01:20:36.882Z,4.42
2022-09-23T01:23:28.478Z,4.39
2022-09-23T01:26:46.435Z,4.44
2022-09-23T01:29:33.234Z,4.46
2022-09-23T01:32:21.296Z,4.46
2022-09-23T01:34:57.488Z,4.37
2022-09-23T01:37:39.421Z,4.34
2022-09-23T01:40:18.170Z,4.30
2022-09-23T01:42:52.760Z,4.27
2022-09-23T01:45:42.116Z,4.27
2022-09-23T01:48:21.639Z,4.21
2022-09-23T01:51:12.754Z,4.16
2022-09-23T01:53:49.626Z,4.19
2022-09-23T01:56:32.658Z,4.11
2022-09-23T01:59:15.065Z,4.13
2022-09-23T02:01:56.321Z,4.08
2022-09-23T02:04:31.223Z,4.07
2022-09-23T02:07:15.386Z,4.13
2022-09-23T02:09:46.245Z,4.07
2022-09-23T02:12:18.387Z,4.06
2022-09-23T02:15:02.240Z,3.98
2022-09-23T02:17:40.078Z,3.97
2022-09-23T02:20:07.760Z,3.96
2022-09-23T02:22:48.906Z,3.91
2022-09-23T02:25:17.439Z,3.93
2022-09-23T02:28:11.681Z,3.97
2022-09-23T02:30:49.141Z,3.96
2022-09-23T02:33:30.502Z,4.00
2022-09-23T02:36:27.248Z,4.00
2022-09-23T02:38:59.166Z,3.97
2022-09-23T02:41:28.139Z,4.00
2022-09-23T02:44:12.753Z,3.92
2022-09-23T02:46:43.410Z,3.91
2022-09-23T02:49:19.136Z,3.88
2022-09-23T02:51:46.655Z,3.84
2022-09-23T02:54:16.919Z,3.87
2022-09-23T02:56:43.764Z,3.83
2022-09-23T02:59:12.433Z,3.82
2022-09-23T03:02:04.321Z,3.77
2022-09-23T03:04:50.553Z,3.78
2022-09-23T03:07:50.129Z,3.70
2022-09-23T03:10:24.825Z,3.66
2022-09-23T03:12:58.041Z,3.64
2022-09-23T03:15:43.029Z,3.61
2022-09-23T03:18:18.195Z,3.67
2022-09-23T03:20:50.598Z,3.66
2022-09-23T03:23:23.897Z,3.63
2022-09-23T03:25:54.194Z,3.63
2022-09-23T03:28:22.901Z,3.64
2022-09-23T03:30:51.903Z,3.58
2022-09-23T03:33:25.715Z,3.59
2022-09-23T03:36:20.832Z,3.48
2022-09-23T03:38:52.809Z,3.56
2022-09-23T03:41:29.749Z,3.44
2022-09-23T03:43:58.497Z,3.40
2022-09-23T03:46:30.245Z,3.42
2022-09-23T03:49:02.775Z,3.38
2022-09-23T03:51:29.446Z,3.38
2022-09-23T03:53:56.339Z,3.40
2022-09-23T03:56:22.977Z,3.40
2022-09-23T03:58:49.740Z,3.28
2022-09-23T04:01:16.482Z,3.34
2022-09-23T04:03:43.418Z,3.35
2022-09-23T04:06:10.222Z,3.35
2022-09-23T04:08:37.022Z,3.34
2022-09-23T04:11:05.012Z,3.36
2022-09-23T04:13:34.250Z,3.40
2022-09-23T04:16:01.091Z,3.35
2022-09-23T04:18:27.994Z,3.28
2022-09-23T04:21:01.125Z,3.27
2022-09-23T04:23:28.057Z,3.25
2022-09-23T04:25:55.444Z,3.32
2022-09-23T04:28:22.798Z,3.34
2022-09-23T04:30:49.800Z,3.26
2022-09-23T04:33:17.522Z,3.26
2022-09-23T04:35:44.271Z,3.24
2022-09-23T04:38:12.597Z,3.20
2022-09-23T04:40:39.866Z,3.23
2022-09-23T04:43:09.476Z,3.23
2022-09-23T04:45:38.738Z,3.30
2022-09-23T04:48:05.359Z,3.31
2022-09-23T04:50:34.261Z,3.31
2022-09-23T04:53:02.571Z,3.25
2022-09-23T04:55:30.154Z,3.24
2022-09-23T04:57:57.323Z,3.23
2022-09-23T05:00:24.353Z,3.15
2022-09-23T05:02:51.334Z,3.15
2022-09-23T05:05:23.520Z,3.14
2022-09-23T05:07:51.280Z,3.21
2022-09-23T05:10:18.311Z,3.26
2022-09-23T05:12:44.975Z,3.31
2022-09-23T05:15:13.148Z,3.42
2022-09-23T05:17:39.754Z,3.46
2022-09-23T05:20:06.989Z,3.52
2022-09-23T05:22:33.560Z,3.56
2022-09-23T05:25:01.639Z,3.60
2022-09-23T05:27:29.120Z,3.66
2022-09-23T05:29:55.714Z,3.70
2022-09-23T05:32:22.394Z,3.78
2022-09-23T05:34:49.505Z,3.85
2022-09-23T05:37:16.207Z,3.95
2022-09-23T05:39:42.790Z,4.00
2022-09-23T05:42:09.922Z,4.09
2022-09-23T05:44:36.544Z,4.34
2022-09-23T05:47:03.289Z,5.32
2022-09-23T05:49:55.271Z,6.27
2022-09-23T05:52:17.592Z,6.94
2022-09-23T05:54:44.194Z,7.26
2022-09-23T05:57:10.820Z,7.31
2022-09-23T05:59:38.040Z,7.42
2022-09-23T06:02:04.809Z,7.52
2022-09-23T06:04:31.591Z,7.61
2022-09-23T06:07:02.761Z,7.74
2022-09-23T06:09:35.637Z,8.22
2022-09-23T06:12:03.560Z,8.56
2022-09-23T06:14:30.292Z,9.06
2022-09-23T06:16:56.894Z,9.35
2022-09-23T06:19:23.541Z,9.58
2022-09-23T06:21:50.198Z,9.72
2022-09-23T06:24:20.312Z,10.26
2022-09-23T06:26:49.102Z,10.59
2022-09-23T06:29:16.111Z,11.04
2022-09-23T06:31:43.447Z,11.34
2022-09-23T06:34:13.544Z,11.45
2022-09-23T06:36:45.739Z,11.56
2022-09-23T06:39:16.172Z,12.32
2022-09-23T06:41:43.839Z,12.66
2022-09-23T06:44:14.421Z,13.57
2022-09-23T06:46:41.166Z,13.75
2022-09-23T06:49:07.903Z,13.67
2022-09-23T06:51:34.588Z,14.01
2022-09-23T06:54:01.199Z,13.92
2022-09-23T06:56:27.887Z,14.12
2022-09-23T06:58:54.849Z,15.29
2022-09-23T07:01:22.305Z,15.43
2022-09-23T07:03:49.020Z,15.28
2022-09-23T07:06:16.202Z,16.00
2022-09-23T07:08:44.915Z,16.14
2022-09-23T07:11:13.111Z,16.55
2022-09-23T07:13:41.265Z,16.02
2022-09-23T07:16:09.190Z,16.85
2022-09-23T07:18:37.576Z,17.12
2022-09-23T07:21:15.972Z,17.04
2022-09-23T07:23:44.159Z,17.24
2022-09-23T07:26:10.870Z,17.57
2022-09-23T07:28:38.341Z,16.92
2022-09-23T07:31:14.778Z,17.64
2022-09-23T07:33:44.174Z,17.87
2022-09-23T07:36:14.396Z,17.94
2022-09-23T07:38:45.138Z,17.99
2022-09-23T07:41:14.928Z,17.61
2022-09-23T07:43:41.699Z,18.64
2022-09-23T07:46:11.585Z,19.87
2022-09-23T07:48:39.317Z,19.46
2022-09-23T07:51:10.709Z,20.38
2022-09-23T07:53:37.410Z,21.35
2022-09-23T07:56:06.335Z,20.51
2022-09-23T07:58:34.647Z,20.40
2022-09-23T08:01:10.274Z,20.37
2022-09-23T08:03:38.087Z,21.34
2022-09-23T08:06:11.141Z,21.98
2022-09-23T08:08:40.471Z,21.86
2022-09-23T08:11:10.251Z,21.76
2022-09-23T08:13:37.799Z,22.29
2022-09-23T08:16:04.687Z,21.45
2022-09-23T08:18:31.358Z,22.41
2022-09-23T08:20:58.080Z,22.66
2022-09-23T08:23:25.658Z,23.35
2022-09-23T08:26:00.863Z,23.43
2022-09-23T08:28:28.143Z,23.47
2022-09-23T08:30:55.816Z,23.79
2022-09-23T08:33:23.645Z,23.42
2022-09-23T08:35:51.494Z,23.50
2022-09-23T08:38:18.904Z,23.60
2022-09-23T08:40:49.456Z,23.10
2022-09-23T08:43:31.301Z,23.32
2022-09-23T08:46:02.636Z,23.68
2022-09-23T08:48:33.363Z,24.52
2022-09-23T08:51:33.842Z,24.94
2022-09-23T08:54:00.946Z,24.12
2022-09-23T08:56:30.738Z,24.58
2022-09-23T08:59:05.643Z,24.93
2022-09-23T09:01:47.143Z,24.30
2022-09-23T09:04:16.677Z,24.22
2022-09-23T09:10:09.636Z,24.51
2022-09-23T09:12:52.471Z,24.93
2022-09-23T09:15:25.323Z,24.83
2022-09-23T09:18:01.225Z,25.05
2022-09-23T09:21:16.029Z,25.60
2022-09-23T09:23:56.517Z,25.89
2022-09-23T09:26:33.538Z,26.15
2022-09-23T09:29:31.197Z,26.25
2022-09-23T09:31:59.515Z,26.63
2022-09-23T09:35:05.285Z,25.83
2022-09-23T09:37:41.410Z,25.70
2022-09-23T09:40:17.057Z,25.76
2022-09-23T09:42:48.484Z,26.58
2022-09-23T09:45:33.835Z,26.37
2022-09-23T09:48:10.966Z,26.77
2022-09-23T09:50:47.248Z,26.90
2022-09-23T09:53:21.074Z,26.66
2022-09-23T09:56:04.626Z,27.05
2022-09-23T09:58:51.306Z,26.95
2022-09-23T10:01:24.904Z,27.18
2022-09-23T10:03:59.167Z,27.28
2022-09-23T10:06:32.851Z,26.76
2022-09-23T10:09:08.554Z,27.10
2022-09-23T10:11:35.511Z,27.41
2022-09-23T10:14:13.997Z,27.52
2022-09-23T10:16:42.056Z,27.18
2022-09-23T10:19:25.331Z,26.58
2022-09-23T10:21:56.797Z,28.10
2022-09-23T10:24:26.481Z,28.41
2022-09-23T10:27:00.639Z,27.88
2022-09-23T10:29:33.759Z,28.45
2022-09-23T10:32:25.737Z,28.08
2022-09-23T10:35:17.013Z,28.91
2022-09-23T10:37:50.494Z,28.89
2022-09-23T10:40:37.634Z,28.00
2022-09-23T10:43:33.845Z,28.67
2022-09-23T10:46:24.492Z,28.50
2022-09-23T10:49:10.056Z,28.94
2022-09-23T10:51:58.522Z,28.90
2022-09-23T10:54:55.799Z,28.96
2022-09-23T10:57:43.406Z,29.36
2022-09-23T11:00:23.349Z,29.66
2022-09-23T11:02:52.880Z,29.17
2022-09-23T11:05:41.576Z,29.49
2022-09-23T11:08:27.799Z,28.88
2022-09-23T11:11:35.479Z,29.42
2022-09-23T11:14:08.121Z,30.23
2022-09-23T11:16:53.472Z,30.42
2022-09-23T11:19:57.873Z,30.15
2022-09-23T11:23:03.242Z,29.53
2022-09-23T11:25:54.608Z,29.82
2022-09-23T11:28:51.647Z,29.82
2022-09-23T11:31:37.423Z,30.21
2022-09-23T11:34:16.048Z,30.54
2022-09-23T11:37:14.082Z,30.04
2022-09-23T11:39:56.338Z,30.10
2022-09-23T11:42:28.899Z,29.91
2022-09-23T11:45:09.864Z,30.56
2022-09-23T11:47:45.479Z,30.51
2022-09-23T11:50:23.465Z,30.39
2022-09-23T11:52:58.747Z,30.65
2022-09-23T11:55:33.549Z,29.16
2022-09-23T11:58:22.609Z,30.42
2022-09-23T12:01:15.843Z,31.27
2022-09-23T12:04:12.462Z,29.65
2022-09-23T12:06:55.036Z,30.94
2022-09-23T12:09:58.141Z,31.37
2022-09-23T12:12:37.084Z,31.61
2022-09-23T12:15:36.272Z,31.83
2022-09-23T12:18:35.856Z,31.34
2022-09-23T12:21:38.845Z,30.34
2022-09-23T12:24:28.973Z,31.20
2022-09-23T12:27:02.175Z,30.79
2022-09-23T12:29:32.091Z,30.80
2022-09-23T12:31:59.497Z,31.34
2022-09-23T12:34:36.859Z,31.74
2022-09-23T12:37:05.598Z,30.99
2022-09-23T12:39:37.217Z,30.00
2022-09-23T12:42:11.163Z,31.33
2022-09-23T12:44:44.377Z,30.32
2022-09-23T12:47:21.122Z,31.15
2022-09-23T12:49:50.928Z,30.93
2022-09-23T12:52:17.479Z,31.37
2022-09-23T12:54:46.719Z,29.93
2022-09-23T12:57:34.191Z,31.03
2022-09-23T13:00:07.352Z,29.87
2022-09-23T13:02:38.353Z,30.77
2022-09-23T13:05:27.037Z,31.28
2022-09-23T13:08:05.305Z,30.60
2022-09-23T13:10:38.500Z,30.63
2022-09-23T13:13:06.759Z,30.80
2022-09-23T13:15:35.546Z,30.45
2022-09-23T13:18:21.059Z,31.33
2022-09-23T13:20:53.077Z,30.29
2022-09-23T13:23:27.358Z,30.56
2022-09-23T13:25:57.442Z,30.35
2022-09-23T13:28:29.546Z,29.26
2022-09-23T13:30:56.288Z,30.11
2022-09-23T13:33:49.931Z,29.93
2022-09-23T13:36:18.531Z,30.61
2022-09-23T13:38:48.703Z,30.38
2022-09-23T13:41:21.629Z,30.59
2022-09-23T13:43:55.949Z,29.98
2022-09-23T13:46:27.591Z,29.25
2022-09-23T13:48:55.410Z,29.75
2022-09-23T13:51:26.331Z,28.15
2022-09-23T13:54:01.036Z,29.39
2022-09-23T13:56:33.147Z,29.18
2022-09-23T13:59:24.864Z,28.84
2022-09-23T14:02:04.732Z,28.45
2022-09-23T14:04:31.422Z,28.37
2022-09-23T14:06:58.321Z,27.95
2022-09-23T14:09:28.193Z,28.11
2022-09-23T14:11:58.333Z,27.54
2022-09-23T14:14:27.326Z,28.42
2022-09-23T14:16:56.045Z,28.66
2022-09-23T14:19:25.682Z,28.24
2022-09-23T14:21:54.528Z,28.60
2022-09-23T14:24:31.970Z,28.67
2022-09-23T14:27:07.408Z,28.24
2022-09-23T14:29:39.472Z,27.19
2022-09-23T14:32:13.544Z,26.26
2022-09-23T14:34:41.628Z,25.95
2022-09-23T14:37:57.127Z,24.62
2022-09-23T14:40:35.294Z,23.47
2022-09-23T14:43:06.396Z,22.71
2022-09-23T14:45:36.191Z,21.93
2022-09-23T14:48:09.275Z,21.66
2022-09-23T14:50:36.954Z,21.57
2022-09-23T14:53:39.877Z,21.37
2022-09-23T14:56:06.337Z,21.21
2022-09-23T14:58:56.248Z,20.76
2022-09-23T15:01:32.257Z,20.76
2022-09-23T15:04:12.564Z,20.91
2022-09-23T15:06:42.512Z,21.20
2022-09-23T15:09:20.097Z,21.13
2022-09-23T15:11:47.433Z,20.95
2022-09-23T15:14:36.777Z,20.39
2022-09-23T15:17:06.862Z,19.28
2022-09-23T15:19:35.312Z,19.08
2022-09-23T15:22:02.328Z,18.63
2022-09-23T15:24:44.848Z,18.37
2022-09-23T15:27:33.054Z,18.19
2022-09-23T15:30:17.102Z,18.23
2022-09-23T15:32:45.558Z,18.27
2022-09-23T15:35:18.852Z,17.96
2022-09-23T15:37:47.280Z,17.86
2022-09-23T15:40:19.541Z,17.74
2022-09-23T15:42:51.425Z,17.37
2022-09-23T15:45:21.906Z,17.21
2022-09-23T15:47:50.569Z,16.97
2022-09-23T15:50:17.468Z,16.81
2022-09-23T15:52:45.156Z,16.56
2022-09-23T15:55:15.843Z,16.55
2022-09-23T15:57:42.528Z,16.39
2022-09-23T16:00:13.353Z,16.25
2022-09-23T16:02:40.351Z,16.13
2022-09-23T16:05:07.765Z,16.07
2022-09-23T16:07:34.359Z,16.06
2022-09-23T16:10:00.954Z,15.79
2022-09-23T16:12:27.849Z,15.67
2022-09-23T16:14:54.497Z,15.54
2022-09-23T16:17:21.178Z,15.53
2022-09-23T16:19:47.805Z,15.44
2022-09-23T16:22:15.937Z,15.23
2022-09-23T16:24:42.728Z,15.06
2022-09-23T16:27:12.289Z,14.88
2022-09-23T16:29:38.905Z,14.83
2022-09-23T16:32:05.561Z,14.61
2022-09-23T16:34:34.715Z,14.30
2022-09-23T16:37:01.407Z,14.18
2022-09-23T16:39:28.057Z,14.04
2022-09-23T16:41:54.672Z,13.87
2022-09-23T16:44:24.878Z,13.73
2022-09-23T16:46:51.495Z,13.62
2022-09-23T16:49:18.107Z,13.43
2022-09-23T16:51:44.883Z,13.18
2022-09-23T16:54:15.004Z,13.13
2022-09-23T16:56:44.361Z,13.04
2022-09-23T16:59:15.668Z,13.03
2022-09-23T17:02:01.084Z,12.89
2022-09-23T17:04:28.075Z,12.80
2022-09-23T17:06:55.934Z,12.80
2022-09-23T17:09:25.607Z,12.77
2022-09-23T17:12:00.131Z,12.64
2022-09-23T17:14:29.826Z,12.53
2022-09-23T17:16:58.682Z,12.44
2022-09-23T17:19:25.461Z,12.46
2022-09-23T17:21:53.162Z,12.41
2022-09-23T17:24:19.751Z,12.24
2022-09-23T17:26:51.989Z,12.14
2022-09-23T17:29:19.550Z,11.97
2022-09-23T17:31:46.645Z,11.95
2022-09-23T17:34:13.390Z,11.85
2022-09-23T17:36:40.409Z,11.80
2022-09-23T17:39:07.261Z,11.75
2022-09-23T17:41:33.975Z,11.69
2022-09-23T17:44:00.824Z,11.73
2022-09-23T17:46:30.016Z,11.58
2022-09-23T17:48:57.122Z,11.55
2022-09-23T17:51:25.426Z,11.35
2022-09-23T17:53:52.569Z,11.28
2022-09-23T17:56:21.722Z,11.28
2022-09-23T17:58:49.744Z,11.25
2022-09-23T18:01:24.546Z,11.22
2022-09-23T18:03:55.778Z,11.10
2022-09-23T18:06:24.833Z,10.99
2022-09-23T18:08:52.282Z,10.93
2022-09-23T18:11:24.470Z,11.05
2022-09-23T18:13:59.401Z,11.02
2022-09-23T18:16:29.221Z,10.91
2022-09-23T18:18:58.135Z,10.83
2022-09-23T18:21:28.009Z,10.81
2022-09-23T18:23:59.796Z,10.81
2022-09-23T18:26:34.052Z,10.72
2022-09-23T18:29:01.398Z,10.69
2022-09-23T18:31:35.184Z,10.72
2022-09-23T18:34:04.483Z,10.57
2022-09-23T18:36:31.117Z,10.40
2022-09-23T18:38:57.947Z,10.36
2022-09-23T18:41:24.636Z,10.40
2022-09-23T18:43:51.309Z,10.32
2022-09-23T18:46:20.462Z,10.24
2022-09-23T18:49:05.870Z,10.18
2022-09-23T18:51:34.827Z,10.27
2022-09-23T18:54:03.975Z,10.29
2022-09-23T18:56:37.109Z,10.21
2022-09-23T18:59:06.257Z,10.24
2022-09-23T19:01:34.222Z,10.19
2022-09-23T19:04:02.237Z,10.16
2022-09-23T19:06:31.304Z,10.07
2022-09-23T19:08:58.493Z,10.04
2022-09-23T19:11:25.317Z,10.02
2022-09-23T19:13:57.426Z,10.08
2022-09-23T19:16:25.208Z,10.05
2022-09-23T19:18:52.830Z,10.00
2022-09-23T19:21:21.860Z,9.97
2022-09-23T19:23:54.338Z,9.89
2022-09-23T19:26:31.712Z,9.85
2022-09-23T19:29:00.331Z,9.84
2022-09-23T19:31:30.298Z,9.79
2022-09-23T19:34:00.717Z,9.75
2022-09-23T19:36:31.765Z,9.71
2022-09-23T19:39:02.664Z,9.74
2022-09-23T19:41:35.443Z,9.64
2022-09-23T19:44:03.355Z,9.54
2022-09-23T19:46:33.698Z,9.53
2022-09-23T19:49:00.979Z,9.52
2022-09-23T19:51:28.321Z,9.53
2022-09-23T19:53:54.943Z,9.49
2022-09-23T19:56:21.612Z,9.47
2022-09-23T19:58:54.318Z,9.44
2022-09-23T20:01:29.323Z,9.40
2022-09-23T20:03:56.495Z,9.38
2022-09-23T20:06:23.226Z,9.36
2022-09-23T20:08:50.271Z,9.29
2022-09-23T20:11:21.770Z,9.28
2022-09-23T20:13:58.492Z,9.25
2022-09-23T20:16:25.909Z,9.25
2022-09-23T20:18:53.058Z,9.29
2022-09-23T20:21:19.726Z,9.28
2022-09-23T20:23:46.329Z,9.29
2022-09-23T20:26:31.757Z,9.29
2022-09-23T20:29:01.375Z,9.28
2022-09-23T20:31:29.443Z,9.29
2022-09-23T20:34:00.346Z,9.29
2022-09-23T20:36:29.298Z,9.23
2022-09-23T20:38:59.414Z,9.22
2022-09-23T20:41:31.245Z,9.19
2022-09-23T20:44:02.337Z,9.20
2022-09-23T20:46:29.522Z,9.20
2022-09-23T20:48:56.777Z,9.15
2022-09-23T20:51:24.892Z,9.08
2022-09-23T20:53:52.959Z,9.03
2022-09-23T20:56:21.302Z,8.96
2022-09-23T20:58:50.371Z,8.94
2022-09-23T21:01:17.152Z,8.90
2022-09-23T21:03:46.476Z,8.92
2022-09-23T21:06:17.321Z,8.95
2022-09-23T21:08:46.603Z,8.88
2022-09-23T21:11:16.141Z,8.83
2022-09-23T21:13:47.216Z,8.80
2022-09-23T21:16:17.860Z,8.75
2022-09-23T21:18:45.550Z,8.74
2022-09-23T21:21:14.314Z,8.72
2022-09-23T21:23:42.409Z,8.68
2022-09-23T21:26:19.313Z,8.75
2022-09-23T21:28:58.736Z,8.76
2022-09-23T21:31:26.692Z,8.67
2022-09-23T21:33:59.116Z,8.62
2022-09-23T21:36:28.749Z,8.62
2022-09-23T21:38:56.066Z,8.57
2022-09-23T21:41:23.680Z,8.57
2022-09-23T21:43:51.031Z,8.53
2022-09-23T21:46:22.674Z,8.51
2022-09-23T21:48:53.379Z,8.51
2022-09-23T21:51:25.925Z,8.55
2022-09-23T21:53:57.691Z,8.52
2022-09-23T21:56:29.668Z,8.52
2022-09-23T21:58:58.376Z,8.33
2022-09-23T22:01:27.123Z,8.28
2022-09-23T22:03:57.814Z,8.22
2022-09-23T22:06:27.159Z,8.18
2022-09-23T22:08:59.632Z,8.18
2022-09-23T22:11:47.771Z,8.10
2022-09-23T22:14:16.368Z,8.02
2022-09-23T22:16:43.442Z,8.05
2022-09-23T22:19:12.573Z,8.07
2022-09-23T22:21:41.106Z,7.97
2022-09-23T22:24:09.744Z,7.90
2022-09-23T22:26:41.908Z,7.93
2022-09-23T22:29:31.034Z,7.87
2022-09-23T22:32:16.662Z,7.80
2022-09-23T22:34:51.459Z,7.74
2022-09-23T22:37:27.213Z,7.80
2022-09-23T22:39:54.757Z,7.81
2022-09-23T22:42:22.459Z,7.73
2022-09-23T22:44:49.885Z,7.70
2022-09-23T22:47:17.993Z,7.64
2022-09-23T22:49:46.035Z,7.53
2022-09-23T22:52:14.904Z,7.51
2022-09-23T22:54:42.072Z,7.49
2022-09-23T22:57:09.302Z,7.42
2022-09-23T22:59:37.353Z,7.39
2022-09-23T23:02:04.264Z,7.36
2022-09-23T23:04:31.075Z,7.32
2022-09-23T23:06:58.695Z,7.30
2022-09-23T23:09:25.912Z,7.28
2022-09-23T23:11:52.608Z,7.28
2022-09-23T23:14:19.345Z,7.28
2022-09-23T23:16:46.587Z,7.27
2022-09-23T23:19:17.009Z,7.23
2022-09-23T23:21:45.347Z,7.28
2022-09-23T23:24:19.428Z,7.29
2022-09-23T23:26:46.931Z,7.25
2022-09-23T23:29:16.073Z,7.20
2022-09-23T23:31:43.637Z,7.26
2022-09-23T23:34:19.276Z,7.20
2022-09-23T23:36:47.136Z,7.18
2022-09-23T23:39:14.367Z,7.10
2022-09-23T23:41:41.625Z,7.09
2022-09-23T23:44:08.962Z,7.06
2022-09-23T23:46:37.362Z,7.06
2022-09-23T23:49:04.965Z,7.04
2022-09-23T23:51:32.116Z,7.02
2022-09-23T23:53:59.591Z,6.99
2022-09-23T23:56:27.365Z,7.02
2022-09-23T23:58:58.471Z,7.01
